createdAt,value
2022-10-05T00:00:26.937Z,11.10
2022-10-05T00:02:55.142Z,11.10
2022-10-05T00:05:32.173Z,11.10
2022-10-05T00:08:24.236Z,11.00
2022-10-05T00:10:51.857Z,11.00
2022-10-05T00:13:25.220Z,10.90
2022-10-05T00:15:57.901Z,10.90
2022-10-05T00:18:26.910Z,10.90
2022-10-05T00:20:54.141Z,10.90
2022-10-05T00:23:31.930Z,10.90
2022-10-05T00:26:16.159Z,10.90
2022-10-05T00:28:43.534Z,10.90
2022-10-05T00:31:19.914Z,10.90
2022-10-05T00:33:48.037Z,10.80
2022-10-05T00:36:15.005Z,10.80
2022-10-05T00:38:43.478Z,10.80
2022-10-05T00:41:20.538Z,10.70
2022-10-05T00:44:25.026Z,10.70
2022-10-05T00:47:11.306Z,10.60
2022-10-05T00:50:28.210Z,10.60
2022-10-05T00:53:25.294Z,10.60
2022-10-05T00:56:17.902Z,10.60
2022-10-05T00:59:25.401Z,10.60
2022-10-05T01:02:12.744Z,10.60
2022-10-05T01:04:51.691Z,10.60
2022-10-05T01:07:50.407Z,10.60
2022-10-05T01:10:45.952Z,10.60
2022-10-05T01:13:28.568Z,10.60
2022-10-05T01:16:20.993Z,10.60
2022-10-05T01:19:09.057Z,10.60
2022-10-05T01:21:47.564Z,10.50
2022-10-05T01:24:21.021Z,10.50
2022-10-05T01:27:29.032Z,10.50
2022-10-05T01:30:14.768Z,10.50
2022-10-05T01:33:05.868Z,10.50
2022-10-05T01:35:49.636Z,10.50
2022-10-05T01:38:28.385Z,10.50
2022-10-05T01:41:03.157Z,10.50
2022-10-05T01:43:49.609Z,10.50
2022-10-05T01:46:35.869Z,10.50
2022-10-05T01:49:41.217Z,10.50
2022-10-05T01:52:26.437Z,10.50
2022-10-05T01:55:11.814Z,10.50
2022-10-05T01:57:45.938Z,10.60
2022-10-05T02:00:16.577Z,10.60
2022-10-05T02:02:50.865Z,10.70
2022-10-05T02:05:40.934Z,10.80
2022-10-05T02:08:16.666Z,10.80
2022-10-05T02:10:55.710Z,11.00
2022-10-05T02:14:11.902Z,11.00
2022-10-05T02:16:46.219Z,11.10
2022-10-05T02:19:35.990Z,11.20
2022-10-05T02:22:36.547Z,11.20
2022-10-05T02:25:14.063Z,11.20
2022-10-05T02:27:55.341Z,11.30
2022-10-05T02:30:22.361Z,11.30
2022-10-05T02:33:02.851Z,11.40
2022-10-05T02:35:29.607Z,11.40
2022-10-05T02:38:01.511Z,11.50
2022-10-05T02:40:51.399Z,11.50
2022-10-05T02:43:42.945Z,11.60
2022-10-05T02:46:36.529Z,11.60
2022-10-05T02:49:20.408Z,11.60
2022-10-05T02:52:04.036Z,11.70
2022-10-05T02:54:55.060Z,11.70
2022-10-05T02:57:32.136Z,11.80
2022-10-05T03:00:09.673Z,11.80
2022-10-05T03:02:39.828Z,11.80
2022-10-05T03:05:33.816Z,11.90
2022-10-05T03:08:18.388Z,11.90
2022-10-05T03:11:34.768Z,11.90
2022-10-05T03:14:12.916Z,11.90
2022-10-05T03:16:45.802Z,11.90
2022-10-05T03:19:44.145Z,12.00
2022-10-05T03:22:40.671Z,12.00
2022-10-05T03:25:30.621Z,12.10
2022-10-05T03:28:04.157Z,12.10
2022-10-05T03:30:41.901Z,12.10
2022-10-05T03:33:23.054Z,12.10
2022-10-05T03:35:57.590Z,12.20
2022-10-05T03:38:31.862Z,12.20
2022-10-05T03:41:32.330Z,12.20
2022-10-05T03:43:59.614Z,12.20
2022-10-05T03:47:01.959Z,12.30
2022-10-05T03:49:58.250Z,12.30
2022-10-05T03:53:05.063Z,12.30
2022-10-05T03:56:05.238Z,12.20
2022-10-05T03:58:57.586Z,12.20
2022-10-05T04:01:43.052Z,12.30
2022-10-05T04:04:18.995Z,12.20
2022-10-05T04:06:49.542Z,12.10
2022-10-05T04:09:26.568Z,12.20
2022-10-05T04:12:18.939Z,12.10
2022-10-05T04:15:03.191Z,12.10
2022-10-05T04:17:42.494Z,12.10
2022-10-05T04:20:24.668Z,12.00
2022-10-05T04:23:14.956Z,11.90
2022-10-05T04:25:53.724Z,11.90
2022-10-05T04:28:38.223Z,11.80
2022-10-05T04:31:05.998Z,11.80
2022-10-05T04:33:33.660Z,11.80
2022-10-05T04:36:24.548Z,11.70
2022-10-05T04:39:17.057Z,11.70
2022-10-05T04:41:56.110Z,11.70
2022-10-05T04:44:37.078Z,11.70
2022-10-05T04:47:33.353Z,11.70
2022-10-05T04:50:23.866Z,11.70
2022-10-05T04:53:18.857Z,11.70
2022-10-05T04:56:19.853Z,11.80
2022-10-05T04:58:53.505Z,11.80
2022-10-05T05:01:23.366Z,11.80
2022-10-05T05:04:06.934Z,11.80
2022-10-05T05:06:44.089Z,11.90
2022-10-05T05:09:40.526Z,11.90
2022-10-05T05:12:19.439Z,11.90
2022-10-05T05:15:12.359Z,11.90
2022-10-05T05:18:12.991Z,11.90
2022-10-05T05:20:51.691Z,12.00
2022-10-05T05:23:40.094Z,12.00
2022-10-05T05:26:17.127Z,12.00
2022-10-05T05:29:09.005Z,12.00
2022-10-05T05:31:49.663Z,12.10
2022-10-05T05:34:55.020Z,12.10
2022-10-05T05:37:41.307Z,12.10
2022-10-05T05:40:31.941Z,12.10
2022-10-05T05:43:26.486Z,12.10
2022-10-05T05:46:03.324Z,12.20
2022-10-05T05:48:47.425Z,12.20
2022-10-05T05:51:27.601Z,12.20
2022-10-05T05:54:20.725Z,12.20
2022-10-05T05:57:00.280Z,12.20
2022-10-05T05:59:51.902Z,12.30
2022-10-05T06:02:25.011Z,12.30
2022-10-05T06:05:03.349Z,12.40
2022-10-05T06:07:31.751Z,12.40
2022-10-05T06:10:04.459Z,12.40
2022-10-05T06:12:50.481Z,12.50
2022-10-05T06:15:40.181Z,12.50
2022-10-05T06:18:13.782Z,12.50
2022-10-05T06:20:51.954Z,12.50
2022-10-05T06:23:35.269Z,12.60
2022-10-05T06:26:20.112Z,12.60
2022-10-05T06:29:05.806Z,12.70
2022-10-05T06:32:01.668Z,12.70
2022-10-05T06:34:58.328Z,12.70
2022-10-05T06:37:46.180Z,12.70
2022-10-05T06:40:41.714Z,12.70
2022-10-05T06:43:47.151Z,12.80
2022-10-05T06:46:56.392Z,12.80
2022-10-05T06:50:15.816Z,12.80
2022-10-05T06:53:20.186Z,12.80
2022-10-05T06:56:08.735Z,12.90
2022-10-05T06:58:57.264Z,12.90
2022-10-05T07:01:41.655Z,12.90
2022-10-05T07:04:24.473Z,12.90
2022-10-05T07:06:54.643Z,12.90
2022-10-05T07:09:22.471Z,12.80
2022-10-05T07:11:55.282Z,12.80
2022-10-05T07:14:46.679Z,12.80
2022-10-05T07:17:45.820Z,12.90
2022-10-05T07:20:32.076Z,12.90
2022-10-05T07:23:21.260Z,12.90
2022-10-05T07:26:06.774Z,12.90
2022-10-05T07:29:12.951Z,13.00
2022-10-05T07:31:52.913Z,12.90
2022-10-05T07:34:40.073Z,13.00
2022-10-05T07:37:41.129Z,13.00
2022-10-05T07:40:40.861Z,13.10
2022-10-05T07:44:00.984Z,13.20
2022-10-05T07:46:57.296Z,13.20
2022-10-05T07:49:32.453Z,13.30
2022-10-05T07:52:05.017Z,13.30
2022-10-05T07:54:47.716Z,13.40
2022-10-05T07:57:28.487Z,13.50
2022-10-05T08:00:05.254Z,13.50
2022-10-05T08:02:50.978Z,13.60
2022-10-05T08:05:37.431Z,13.60
2022-10-05T08:08:19.788Z,13.60
2022-10-05T08:11:06.192Z,13.60
2022-10-05T08:14:10.726Z,13.60
2022-10-05T08:16:38.517Z,13.70
2022-10-05T08:19:14.011Z,13.70
2022-10-05T08:21:55.884Z,13.80
2022-10-05T08:24:23.112Z,13.80
2022-10-05T08:27:21.997Z,13.90
2022-10-05T08:29:54.428Z,14.00
2022-10-05T08:32:50.240Z,14.10
2022-10-05T08:35:36.355Z,14.20
2022-10-05T08:38:09.454Z,14.30
2022-10-05T08:41:05.035Z,14.40
2022-10-05T08:43:35.176Z,14.60
2022-10-05T08:46:11.801Z,14.70
2022-10-05T08:49:04.749Z,14.70
2022-10-05T08:51:49.814Z,14.80
2022-10-05T08:54:43.763Z,14.90
2022-10-05T08:57:39.202Z,15.00
2022-10-05T09:00:15.928Z,15.10
2022-10-05T09:03:20.689Z,15.20
2022-10-05T09:06:18.305Z,15.30
2022-10-05T09:08:51.174Z,15.40
2022-10-05T09:11:25.521Z,15.50
2022-10-05T09:14:11.205Z,15.60
2022-10-05T09:17:00.157Z,15.60
2022-10-05T09:19:48.697Z,15.70
2022-10-05T09:22:16.633Z,15.70
2022-10-05T09:25:02.027Z,15.90
2022-10-05T09:27:39.106Z,15.90
2022-10-05T09:30:45.246Z,16.00
2022-10-05T09:33:33.773Z,16.10
2022-10-05T09:36:31.752Z,16.20
2022-10-05T09:39:16.810Z,16.40
2022-10-05T09:42:21.143Z,16.40
2022-10-05T09:45:25.430Z,16.40
2022-10-05T09:48:04.315Z,16.60
2022-10-05T09:50:43.211Z,16.60
2022-10-05T09:53:46.967Z,16.70
2022-10-05T09:56:39.744Z,16.70
2022-10-05T09:59:36.988Z,16.80
2022-10-05T10:02:28.098Z,16.80
2022-10-05T10:05:16.791Z,16.90
2022-10-05T10:07:50.077Z,16.90
2022-10-05T10:10:44.813Z,17.00
2022-10-05T10:13:56.368Z,17.00
2022-10-05T10:16:36.273Z,17.00
2022-10-05T10:19:21.821Z,17.10
2022-10-05T10:22:00.885Z,17.10
2022-10-05T10:24:41.831Z,17.20
2022-10-05T10:27:51.620Z,17.30
2022-10-05T10:30:56.847Z,17.40
2022-10-05T10:33:44.359Z,17.40
2022-10-05T10:36:33.247Z,17.50
2022-10-05T10:39:21.910Z,17.60
2022-10-05T10:42:07.274Z,17.70
2022-10-05T10:44:52.997Z,17.80
2022-10-05T10:47:40.772Z,17.80
2022-10-05T10:50:39.971Z,18.00
2022-10-05T10:53:17.109Z,18.20
2022-10-05T10:56:18.084Z,18.40
2022-10-05T10:59:09.524Z,18.60
2022-10-05T11:02:15.181Z,18.80
2022-10-05T11:05:01.837Z,19.00
2022-10-05T11:08:17.003Z,19.10
2022-10-05T11:11:12.632Z,19.30
2022-10-05T11:14:16.798Z,19.70
2022-10-05T11:17:21.807Z,20.00
2022-10-05T11:20:19.904Z,20.20
2022-10-05T11:22:58.647Z,20.30
2022-10-05T11:25:53.377Z,20.40
2022-10-05T11:28:48.337Z,20.30
2022-10-05T11:31:54.738Z,20.20
2022-10-05T11:34:31.837Z,20.20
2022-10-05T11:37:40.193Z,20.40
2022-10-05T11:40:38.753Z,20.50
2022-10-05T11:43:37.820Z,20.50
2022-10-05T11:46:20.575Z,20.60
2022-10-05T11:49:00.361Z,20.70
2022-10-05T11:51:36.581Z,20.30
2022-10-05T11:54:23.721Z,20.00
2022-10-05T11:56:58.945Z,20.00
2022-10-05T11:59:43.457Z,20.20
2022-10-05T12:02:25.371Z,20.50
2022-10-05T12:05:03.515Z,20.80
2022-10-05T12:07:39.850Z,20.90
2022-10-05T12:10:32.950Z,21.00
2022-10-05T12:13:14.735Z,21.10
2022-10-05T12:16:06.892Z,21.10
2022-10-05T12:18:33.991Z,21.20
2022-10-05T12:21:15.318Z,21.10
2022-10-05T12:23:59.785Z,21.00
2022-10-05T12:26:49.257Z,20.90
2022-10-05T12:29:26.320Z,20.70
2022-10-05T12:32:04.402Z,20.70
2022-10-05T12:34:48.972Z,20.90
2022-10-05T12:37:40.595Z,21.00
2022-10-05T12:40:31.297Z,21.10
2022-10-05T12:43:11.188Z,21.20
2022-10-05T12:45:49.560Z,21.20
2022-10-05T12:48:25.055Z,21.30
2022-10-05T12:51:16.853Z,21.30
2022-10-05T12:53:57.389Z,21.30
2022-10-05T12:56:42.836Z,21.20
2022-10-05T12:59:24.626Z,21.20
2022-10-05T13:02:19.496Z,21.20
2022-10-05T13:05:22.035Z,21.30
2022-10-05T13:08:17.802Z,21.30
2022-10-05T13:11:12.741Z,21.30
2022-10-05T13:13:52.922Z,21.30
2022-10-05T13:16:54.792Z,21.30
2022-10-05T13:19:36.723Z,21.40
2022-10-05T13:22:34.118Z,21.50
2022-10-05T13:25:19.506Z,21.50
2022-10-05T13:28:08.609Z,21.60
2022-10-05T13:30:37.185Z,21.70
2022-10-05T13:33:22.982Z,21.80
2022-10-05T13:36:07.141Z,21.80
2022-10-05T13:38:48.846Z,21.80
2022-10-05T13:41:50.715Z,21.80
2022-10-05T13:44:17.263Z,21.80
2022-10-05T13:47:13.784Z,21.80
2022-10-05T13:49:58.425Z,21.90
2022-10-05T13:52:45.548Z,21.90
2022-10-05T13:55:37.094Z,22.00
2022-10-05T13:58:23.552Z,22.00
2022-10-05T14:00:55.036Z,22.10
2022-10-05T14:03:33.104Z,22.10
2022-10-05T14:06:03.824Z,22.10
2022-10-05T14:08:46.093Z,22.00
2022-10-05T14:11:31.473Z,21.90
2022-10-05T14:14:10.541Z,21.90
2022-10-05T14:16:53.589Z,21.90
2022-10-05T14:19:27.778Z,22.00
2022-10-05T14:22:11.521Z,22.00
2022-10-05T14:25:02.569Z,21.80
2022-10-05T14:27:50.117Z,21.60
2022-10-05T14:30:23.987Z,21.40
2022-10-05T14:32:52.578Z,21.10
2022-10-05T14:35:25.567Z,20.90
2022-10-05T14:38:09.475Z,20.80
2022-10-05T14:40:38.396Z,20.70
2022-10-05T14:43:13.962Z,20.70
2022-10-05T14:46:02.868Z,20.60
2022-10-05T14:48:41.010Z,20.60
2022-10-05T14:51:24.375Z,20.50
2022-10-05T14:54:01.831Z,20.40
2022-10-05T14:56:49.692Z,20.30
2022-10-05T14:59:41.143Z,20.40
2022-10-05T15:02:36.619Z,20.40
2022-10-05T15:05:48.095Z,20.40
2022-10-05T15:08:45.070Z,20.50
2022-10-05T15:11:31.573Z,20.60
2022-10-05T15:13:58.661Z,20.60
2022-10-05T15:16:34.458Z,20.50
2022-10-05T15:19:22.444Z,20.60
2022-10-05T15:22:18.899Z,20.50
2022-10-05T15:25:14.066Z,20.50
2022-10-05T15:28:07.820Z,20.50
2022-10-05T15:30:40.206Z,20.40
2022-10-05T15:33:27.792Z,20.30
2022-10-05T15:36:08.358Z,20.20
2022-10-05T15:39:03.557Z,20.10
2022-10-05T15:41:53.145Z,20.00
2022-10-05T15:44:29.021Z,19.90
2022-10-05T15:47:03.625Z,19.70
2022-10-05T15:49:45.845Z,19.70
2022-10-05T15:52:44.070Z,19.60
2022-10-05T15:55:35.379Z,19.50
2022-10-05T15:58:31.237Z,19.50
2022-10-05T16:01:13.439Z,19.40
2022-10-05T16:03:51.107Z,19.30
2022-10-05T16:07:05.526Z,19.20
2022-10-05T16:09:46.879Z,19.10
2022-10-05T16:12:25.570Z,19.00
2022-10-05T16:15:19.010Z,19.00
2022-10-05T16:17:51.749Z,19.00
2022-10-05T16:20:22.054Z,18.90
2022-10-05T16:23:21.238Z,18.90
2022-10-05T16:26:21.324Z,18.80
2022-10-05T16:29:23.804Z,18.70
2022-10-05T16:32:06.346Z,18.50
2022-10-05T16:34:49.204Z,18.50
2022-10-05T16:37:38.616Z,18.30
2022-10-05T16:40:19.430Z,18.10
2022-10-05T16:43:10.824Z,18.00
2022-10-05T16:45:52.262Z,17.80
2022-10-05T16:48:27.019Z,17.60
2022-10-05T16:50:56.979Z,17.50
2022-10-05T16:53:37.025Z,17.40
2022-10-05T16:56:10.966Z,17.20
2022-10-05T16:59:11.773Z,17.10
2022-10-05T17:01:45.691Z,17.00
2022-10-05T17:04:13.135Z,17.00
2022-10-05T17:06:54.249Z,17.00
2022-10-05T17:09:52.287Z,17.00
2022-10-05T17:12:37.857Z,17.00
2022-10-05T17:15:29.302Z,17.10
2022-10-05T17:18:16.430Z,17.10
2022-10-05T17:20:51.151Z,17.10
2022-10-05T17:23:30.110Z,17.10
2022-10-05T17:26:08.330Z,17.10
2022-10-05T17:28:59.733Z,17.10
2022-10-05T17:31:31.255Z,17.20
2022-10-05T17:34:26.349Z,17.10
2022-10-05T17:36:58.610Z,17.10
2022-10-05T17:39:52.032Z,17.10
2022-10-05T17:42:25.046Z,17.10
2022-10-05T17:45:14.918Z,17.10
2022-10-05T17:48:09.874Z,17.10
2022-10-05T17:50:58.937Z,17.20
2022-10-05T17:54:05.752Z,17.20
2022-10-05T17:56:47.456Z,17.20
2022-10-05T17:59:38.792Z,17.20
2022-10-05T18:02:23.239Z,17.20
2022-10-05T18:05:01.490Z,17.20
2022-10-05T18:07:28.964Z,17.20
2022-10-05T18:10:17.108Z,17.20
2022-10-05T18:13:11.354Z,17.30
2022-10-05T18:15:45.269Z,17.30
2022-10-05T18:18:48.465Z,17.30
2022-10-05T18:21:15.921Z,17.30
2022-10-05T18:23:51.481Z,17.30
2022-10-05T18:26:47.532Z,17.30
2022-10-05T18:29:53.818Z,17.30
2022-10-05T18:32:46.529Z,17.20
2022-10-05T18:35:46.768Z,17.10
2022-10-05T18:38:43.638Z,16.90
2022-10-05T18:41:31.801Z,16.90
2022-10-05T18:44:11.949Z,16.90
2022-10-05T18:47:02.526Z,16.90
2022-10-05T18:49:56.978Z,17.00
2022-10-05T18:53:14.798Z,17.10
2022-10-05T18:55:53.775Z,17.20
2022-10-05T18:58:31.758Z,17.10
2022-10-05T19:01:17.794Z,17.10
2022-10-05T19:04:22.111Z,17.00
2022-10-05T19:07:18.846Z,16.90
2022-10-05T19:10:02.977Z,17.00
2022-10-05T19:12:32.999Z,17.00
2022-10-05T19:15:13.394Z,17.00
2022-10-05T19:17:43.667Z,17.00
2022-10-05T19:20:19.578Z,17.00
2022-10-05T19:23:19.371Z,16.90
2022-10-05T19:25:55.219Z,16.90
2022-10-05T19:28:33.651Z,17.00
2022-10-05T19:31:12.649Z,17.00
2022-10-05T19:34:00.204Z,17.10
2022-10-05T19:36:32.233Z,17.10
2022-10-05T19:39:10.772Z,17.10
2022-10-05T19:41:59.461Z,17.10
2022-10-05T19:44:38.350Z,17.10
2022-10-05T19:47:24.193Z,17.20
2022-10-05T19:49:55.190Z,17.20
2022-10-05T19:52:25.262Z,17.20
2022-10-05T19:55:15.246Z,17.20
2022-10-05T19:57:58.021Z,17.20
2022-10-05T20:00:35.378Z,17.10
2022-10-05T20:03:27.785Z,17.10
2022-10-05T20:05:59.470Z,17.00
2022-10-05T20:08:36.341Z,17.00
2022-10-05T20:11:21.918Z,16.90
2022-10-05T20:13:58.317Z,16.90
2022-10-05T20:19:49.545Z,16.80
2022-10-05T20:22:37.931Z,16.80
2022-10-05T20:25:24.841Z,16.90
2022-10-05T20:27:55.327Z,17.00
2022-10-05T20:30:27.390Z,17.10
2022-10-05T20:33:04.450Z,17.20
2022-10-05T20:35:31.079Z,17.20
2022-10-05T20:38:01.690Z,17.30
2022-10-05T20:40:29.934Z,17.30
2022-10-05T20:42:58.170Z,17.30
2022-10-05T20:45:25.014Z,17.30
2022-10-05T20:47:52.251Z,17.40
2022-10-05T20:50:20.370Z,17.40
2022-10-05T20:52:47.134Z,17.40
2022-10-05T20:55:13.839Z,17.50
2022-10-05T20:57:43.216Z,17.50
2022-10-05T21:00:11.782Z,17.50
2022-10-05T21:02:39.318Z,17.50
2022-10-05T21:05:06.343Z,17.40
2022-10-05T21:07:34.427Z,17.40
2022-10-05T21:10:03.546Z,17.40
2022-10-05T21:12:30.621Z,17.40
2022-10-05T21:14:59.091Z,17.40
2022-10-05T21:17:26.054Z,17.30
2022-10-05T21:19:52.693Z,17.30
2022-10-05T21:22:19.331Z,17.20
2022-10-05T21:24:46.046Z,17.10
2022-10-05T21:27:13.343Z,17.00
2022-10-05T21:29:41.166Z,16.80
2022-10-05T21:32:11.860Z,16.60
2022-10-05T21:34:39.403Z,16.40
2022-10-05T21:37:07.033Z,16.20
2022-10-05T21:39:34.952Z,16.10
2022-10-05T21:42:02.273Z,16.00
2022-10-05T21:44:28.872Z,15.90
2022-10-05T21:46:56.798Z,15.80
2022-10-05T21:49:24.841Z,15.80
2022-10-05T21:51:52.137Z,15.70
2022-10-05T21:54:21.046Z,15.70
2022-10-05T21:56:51.664Z,15.70
2022-10-05T21:59:21.260Z,15.70
2022-10-05T22:01:48.544Z,15.70
2022-10-05T22:04:15.238Z,15.60
2022-10-05T22:06:42.511Z,15.60
2022-10-05T22:09:09.389Z,15.60
2022-10-05T22:11:36.839Z,15.60
2022-10-05T22:14:03.882Z,15.50
2022-10-05T22:16:34.543Z,15.60
2022-10-05T22:19:06.784Z,15.60
2022-10-05T22:21:38.345Z,15.50
2022-10-05T22:24:05.330Z,15.60
2022-10-05T22:26:33.341Z,15.50
2022-10-05T22:29:01.588Z,15.50
2022-10-05T22:31:28.947Z,15.50
2022-10-05T22:33:55.682Z,15.50
2022-10-05T22:36:23.170Z,15.50
2022-10-05T22:38:49.792Z,15.50
2022-10-05T22:41:18.575Z,15.50
2022-10-05T22:43:48.556Z,15.50
2022-10-05T22:46:16.423Z,15.40
2022-10-05T22:48:43.243Z,15.10
2022-10-05T22:51:10.623Z,14.80
2022-10-05T22:53:37.703Z,14.50
2022-10-05T22:56:12.573Z,14.20
2022-10-05T22:58:40.839Z,14.00
2022-10-05T23:01:11.327Z,13.80
2022-10-05T23:03:38.031Z,13.60
2022-10-05T23:06:14.651Z,13.50
2022-10-05T23:08:42.531Z,13.40
2022-10-05T23:11:18.283Z,13.40
2022-10-05T23:13:45.093Z,13.30
2022-10-05T23:16:15.380Z,13.20
2022-10-05T23:18:42.520Z,13.20
2022-10-05T23:21:10.733Z,13.10
2022-10-05T23:23:41.855Z,13.10
2022-10-05T23:26:11.333Z,13.10
2022-10-05T23:28:40.317Z,13.10
2022-10-05T23:31:08.742Z,13.00
2022-10-05T23:33:35.620Z,13.00
2022-10-05T23:36:18.523Z,13.00
2022-10-05T23:38:45.242Z,13.00
2022-10-05T23:41:13.664Z,12.90
2022-10-05T23:43:40.384Z,13.00
2022-10-05T23:46:08.994Z,13.00
2022-10-05T23:48:39.054Z,13.00
2022-10-05T23:51:08.249Z,13.00
2022-10-05T23:53:34.944Z,13.00
2022-10-05T23:56:02.421Z,13.00
2022-10-05T23:58:29.864Z,13.00
